地図

経路データ

SID SEASON NUMBER BASIN SUBBASIN NAME ISO_TIME NATURE LAT LON WMO_WIND WMO_PRES WMO_AGENCY TRACK_TYPE DIST2LAND LANDFALL IFLAG USA_AGENCY USA_ATCF_ID USA_LAT USA_LON USA_RECORD USA_STATUS USA_WIND USA_PRES USA_SSHS USA_R34_NE USA_R34_SE USA_R34_SW USA_R34_NW USA_R50_NE USA_R50_SE USA_R50_SW USA_R50_NW USA_R64_NE USA_R64_SE USA_R64_SW USA_R64_NW USA_POCI USA_ROCI USA_RMW USA_EYE TOKYO_LAT TOKYO_LON TOKYO_GRADE TOKYO_WIND TOKYO_PRES TOKYO_R50_DIR TOKYO_R50_LONG TOKYO_R50_SHORT TOKYO_R30_DIR TOKYO_R30_LONG TOKYO_R30_SHORT TOKYO_LAND CMA_LAT CMA_LON CMA_CAT CMA_WIND CMA_PRES HKO_LAT HKO_LON HKO_CAT HKO_WIND HKO_PRES NEWDELHI_LAT NEWDELHI_LON NEWDELHI_GRADE NEWDELHI_WIND NEWDELHI_PRES NEWDELHI_CI NEWDELHI_DP NEWDELHI_POCI REUNION_LAT REUNION_LON REUNION_TYPE REUNION_WIND REUNION_PRES REUNION_TNUM REUNION_CI REUNION_RMW REUNION_R34_NE REUNION_R34_SE REUNION_R34_SW REUNION_R34_NW REUNION_R50_NE REUNION_R50_SE REUNION_R50_SW REUNION_R50_NW REUNION_R64_NE REUNION_R64_SE REUNION_R64_SW REUNION_R64_NW BOM_LAT BOM_LON BOM_TYPE BOM_WIND BOM_PRES BOM_TNUM BOM_CI BOM_RMW BOM_R34_NE BOM_R34_SE BOM_R34_SW BOM_R34_NW BOM_R50_NE BOM_R50_SE BOM_R50_SW BOM_R50_NW BOM_R64_NE BOM_R64_SE BOM_R64_SW BOM_R64_NW BOM_ROCI BOM_POCI BOM_EYE BOM_POS_METHOD BOM_PRES_METHOD NADI_LAT NADI_LON NADI_CAT NADI_WIND NADI_PRES WELLINGTON_LAT WELLINGTON_LON WELLINGTON_WIND WELLINGTON_PRES DS824_LAT DS824_LON DS824_STAGE DS824_WIND DS824_PRES TD9636_LAT TD9636_LON TD9636_STAGE TD9636_WIND TD9636_PRES TD9635_LAT TD9635_LON TD9635_WIND TD9635_PRES TD9635_ROCI NEUMANN_LAT NEUMANN_LON NEUMANN_CLASS NEUMANN_WIND NEUMANN_PRES MLC_LAT MLC_LON MLC_CLASS MLC_WIND MLC_PRES USA_GUST BOM_GUST BOM_GUST_PER REUNION_GUST REUNION_GUST_PER USA_SEAHGT USA_SEARAD_NE USA_SEARAD_SE USA_SEARAD_SW USA_SEARAD_NW STORM_SPEED STORM_DIR
2000056S17152 2000 13 SP EA STEVE 2000-02-25 00:00:00 NR -16.8500 152.350 25 1004 bom main 545 523 ______O_O_____ -1 -16.5000 151.700 20 25 1004 1.50000 7 -17.2000 153.000 25 1003 8 293
2000056S17152 2000 13 SP EA STEVE 2000-02-25 03:00:00 NR -16.6927 151.966 main 525 496 ______P_P_____ -1 -16.5001 151.450 20 25 1003 -16.8853 152.482 25 1002 10 289
2000056S17152 2000 13 SP EA STEVE 2000-02-25 06:00:00 TS -16.5375 151.375 25 1002 bom main 505 484 O_____O_O___O_ jtwc_sh SH142000 -16.5000 150.700 25 -1 -16.5000 151.200 20 25 1002 1.50000 7 -16.6000 152.000 25 1001 -16.5000 150.700 TC 25 9 284
2000056S17152 2000 13 SP EA STEVE 2000-02-25 09:00:00 TS -16.4608 151.026 main 484 475 P_____P_P___P_ SH142000 -16.5000 150.550 25 -1 -16.5000 150.950 20 25 1002 -16.3824 151.578 25 1001 -16.5000 150.550 TC 25 6 278
2000056S17152 2000 13 SP EA STEVE 2000-02-25 12:00:00 TS -16.4429 150.714 25 1002 bom main 475 455 O_____O_O___O_ jtwc_sh SH142000 -16.5000 150.400 25 -1 -16.5000 150.700 20 25 1002 1.50000 7 -16.3000 151.200 25 1001 -16.5000 150.400 TC 25 5 268
2000056S17152 2000 13 SP EA STEVE 2000-02-25 15:00:00 TS -16.4818 150.456 main 455 439 P_____P_P___P_ SH142000 -16.5000 150.250 25 -1 -16.5000 150.450 20 27 1001 -16.4272 150.873 25 1001 -16.5000 150.250 TC 25 5 260
2000056S17152 2000 13 SP EA STEVE 2000-02-25 18:00:00 TS -16.5250 150.225 30 1000 bom main 439 425 O_____O_O___O_ jtwc_sh SH142000 -16.5000 150.100 25 -1 -16.5000 150.200 20 30 1000 2.00000 7 -16.6000 150.500 25 1001 -16.5000 150.100 TC 25 5 264
2000056S17152 2000 13 SP EA STEVE 2000-02-25 21:00:00 TS -16.5325 149.959 main 425 396 P_____P_P___P_ SH142000 -16.4999 149.973 25 -1 -16.4999 149.965 20 30 1000 -16.6304 149.927 25 1001 -16.4999 149.973 TC 25 5 270
2000056S17152 2000 13 SP EA STEVE 2000-02-26 00:00:00 TS -16.5250 149.675 30 1000 bom main 396 365 O_____O_O___O_ jtwc_sh SH142000 -16.5000 149.800 25 -1 -16.5000 149.700 20 30 1000 2.00000 7 -16.6000 149.400 25 1001 -16.5000 149.800 TC 25 5 272
2000056S17152 2000 13 SP EA STEVE 2000-02-26 03:00:00 TS -16.5143 149.389 main 365 334 P_____P_P___P_ SH142000 -16.5000 149.523 25 -1 -16.5001 149.350 20 30 999 -16.5572 149.163 25 1001 -16.5000 149.523 TC 25 6 273
2000056S17152 2000 13 SP EA STEVE 2000-02-26 06:00:00 TS -16.5000 149.100 30 998 bom main 334 304 O_____O_O___O_ jtwc_sh SH142000 -16.5000 149.200 25 -1 -16.5000 149.000 20 30 998 2.50000 7 -16.5000 149.000 25 1001 -16.5000 149.200 TC 25 5 273
2000056S17152 2000 13 SP EA STEVE 2000-02-26 09:00:00 TS -16.4837 148.824 main 304 274 P_____P_P___P_ SH142000 -16.4999 148.908 27 -1 -16.4998 148.750 20 30 998 -16.4349 148.730 25 1000 -16.4999 148.908 TC 27 6 273
2000056S17152 2000 13 SP EA STEVE 2000-02-26 12:00:00 TS -16.4750 148.525 30 998 bom main 274 245 O_____O_O___O_ jtwc_sh SH142000 -16.5000 148.600 30 -1 -16.5000 148.500 20 30 998 2.50000 7 -16.4000 148.400 25 1000 -16.5000 148.600 TC 30 6 270
2000056S17152 2000 13 SP EA STEVE 2000-02-26 15:00:00 TS -16.4856 148.176 main 245 207 P_____P_P___P_ SH142000 -16.4999 148.265 32 -1 -16.5000 148.174 20 30 997 -16.4426 148.000 27 998 -16.4999 148.265 TC 32 7 268
2000056S17152 2000 13 SP EA STEVE 2000-02-26 18:00:00 TS -16.5000 147.800 30 996 bom main 207 179 O_____O_O___O_ jtwc_sh SH142000 -16.5000 147.900 35 0 -16.5000 147.800 20 30 996 2.50000 7 -16.5000 147.600 30 996 -16.5000 147.900 TC 35 7 269
2000056S17152 2000 13 SP EA STEVE 2000-02-26 21:00:00 TS -16.4998 147.446 35 994 bom main 169 139 P_____O_P___P_ SH142000 -16.4997 147.545 37 0 -16.5000 147.400 30 35 994 3.00000 7 -16.4999 147.292 35 992 -16.4997 147.545 TC 37 7 270
2000056S17152 2000 13 SP EA STEVE 2000-02-27 00:00:00 TS -16.5000 147.050 40 988 bom main 139 93 O_____O_O___O_ jtwc_sh SH142000 -16.5000 147.100 40 0 -16.5000 147.000 30 40 988 3.00000 106 7 -16.5000 147.000 40 988 -16.5000 147.100 TC 40 8 270
2000056S17152 2000 13 SP EA STEVE 2000-02-27 03:00:00 TS -16.4988 146.575 main 93 54 P_____P_P___P_ SH142000 -16.4852 146.472 40 0 -16.5123 146.669 30 45 984 106 -16.5124 146.687 47 984 -16.4852 146.472 TC 40 10 267
2000056S17152 2000 13 SP EA STEVE 2000-02-27 06:00:00 TS -16.5500 146.050 50 980 bom main 54 0 O_____O_O___O_ jtwc_sh SH142000 -16.5000 145.800 40 0 -16.6000 146.300 30 50 980 3.50000 106 7 -16.6000 146.300 55 980 -16.5000 145.800 TC 40 10 259
2000056S17152 2000 13 SP EA STEVE 2000-02-27 09:00:00 TS -16.6886 145.514 60 975 bom main 0 0 P_____O_O___P_ SH142000 -16.5773 145.228 37 0 -16.8000 145.800 30 60 975 4.00000 97 7 -16.8000 145.800 60 975 -16.5773 145.228 TC 37 12 260
2000056S17152 2000 13 SP EA STEVE 2000-02-27 12:00:00 TS -16.7500 144.850 40 990 bom main 0 0 O_____O_O___O_ jtwc_sh SH142000 -16.7000 144.700 35 0 -16.8000 145.000 30 40 990 97 7 -16.8000 145.000 40 990 -16.7000 144.700 TC 35 12 256
2000056S17152 2000 13 SP EA STEVE 2000-02-27 15:00:00 TS -16.9712 144.346 30 995 bom main 0 0 P_____O_O___P_ SH142000 -16.8423 144.192 32 -1 -17.1000 144.500 20 30 995 106 7 -17.1000 144.500 35 995 -16.8423 144.192 TC 32 13 251
2000056S17152 2000 13 SP EA STEVE 2000-02-27 18:00:00 TS -17.1500 143.600 30 999 bom main 0 0 O_____O_O___O_ jtwc_sh SH142000 -17.0000 143.700 30 -1 -17.3000 143.500 20 30 999 129 7 -17.3000 143.500 30 999 -17.0000 143.700 TC 30 13 255
2000056S17152 2000 13 SP EA STEVE 2000-02-27 21:00:00 TS -17.2915 143.075 main 0 0 P_____P_P___P_ SH142000 -17.1499 143.200 27 -1 -17.4332 142.951 20 30 1000 144 -17.4332 142.951 27 1000 -17.1499 143.200 TC 27 9 255
2000056S17152 2000 13 SP EA STEVE 2000-02-28 00:00:00 TS -17.4000 142.650 30 1002 bom main 0 0 O_____O_O___O_ jtwc_sh SH142000 -17.3000 142.700 25 -1 -17.5000 142.600 20 30 1002 160 7 -17.5000 142.600 25 1002 -17.3000 142.700 TC 25 9 256
2000056S17152 2000 13 SP EA STEVE 2000-02-28 03:00:00 TS -17.5199 142.133 main 0 0 P_____P_P___P_ SH142000 -17.4949 142.200 25 -1 -17.5450 142.065 20 30 1002 160 -17.5450 142.065 25 1002 -17.4949 142.200 TC 25 10 261
2000056S17152 2000 13 SP EA STEVE 2000-02-28 06:00:00 TS -17.5500 141.600 30 1002 bom main 0 0 O_____O_O___O_ jtwc_sh SH142000 -17.6000 141.700 25 -1 -17.5000 141.500 20 30 1002 160 7 -17.5000 141.500 25 1002 -17.6000 141.700 TC 25 10 276
2000056S17152 2000 13 SP EA STEVE 2000-02-28 09:00:00 TS -17.4162 141.056 main 0 0 P_____P_P___P_ SH142000 -17.5025 141.185 25 -1 -17.3300 140.927 20 32 998 144 -17.3300 140.927 30 998 -17.5025 141.185 TC 25 11 289
2000056S17152 2000 13 SP EA STEVE 2000-02-28 12:00:00 TS -17.2000 140.550 35 995 bom main 38 46 O_____O_O___O_ jtwc_sh SH142000 -17.3000 140.700 25 -1 -17.1000 140.400 30 35 995 3.00000 129 7 -17.1000 140.400 35 995 -17.3000 140.700 TC 25 10 295
2000056S17152 2000 13 SP EA STEVE 2000-02-28 15:00:00 TS -16.9961 140.116 main 74 64 P_____P_P___P_ SH142000 -17.1074 140.278 25 -1 -16.8849 139.955 30 35 993 129 -16.8849 139.955 35 993 -17.1074 140.278 TC 25 9 298
2000056S17152 2000 13 SP EA STEVE 2000-02-28 18:00:00 TS -16.8000 139.750 35 992 bom main 67 46 O_____O_O___O_ jtwc_sh SH142000 -16.9000 139.900 25 -1 -16.7000 139.600 30 35 992 3.00000 129 7 -16.7000 139.600 35 992 -16.9000 139.900 TC 25 7 298
2000056S17152 2000 13 SP EA STEVE 2000-02-28 21:00:00 TS -16.6461 139.439 main 49 39 P_____P_P___P_ SH142000 -16.6999 139.543 27 -1 -16.5923 139.335 30 37 990 129 -16.5923 139.335 37 990 -16.6999 139.543 TC 27 6 298
2000056S17152 2000 13 SP EA STEVE 2000-02-29 00:00:00 TS -16.5000 139.150 40 988 bom main 49 46 O_____O_O___O_ jtwc_sh SH142000 -16.5000 139.200 30 -1 -16.5000 139.100 30 40 988 3.00000 129 7 -16.5000 139.100 40 988 -16.5000 139.200 TC 30 7 299
2000056S17152 2000 13 SP EA STEVE 2000-02-29 03:00:00 TS -16.3243 138.827 main 59 56 P_____P_P___P_ SH142000 -16.2924 138.850 32 -1 -16.3547 138.802 30 40 988 129 -16.3575 138.808 40 988 -16.2924 138.850 TC 32 7 299
2000056S17152 2000 13 SP EA STEVE 2000-02-29 06:00:00 TS -16.1500 138.500 40 988 bom main 77 57 O_____O_O___O_ jtwc_sh SH142000 -16.1000 138.500 35 0 -16.2000 138.500 30 40 988 3.00000 129 7 -16.2000 138.500 40 988 -16.1000 138.500 TC 35 7 299
2000056S17152 2000 13 SP EA STEVE 2000-02-29 09:00:00 TS -15.9907 138.196 main 57 39 P_____P_P___P_ SH142000 -15.9274 138.165 37 0 -16.0656 138.253 30 40 988 -16.0425 138.200 40 988 -15.9274 138.165 TC 37 7 296
2000056S17152 2000 13 SP EA STEVE 2000-02-29 12:00:00 TS -15.8601 137.875 main 39 39 O_____P_O___O_ jtwc_sh SH142000 -15.8000 137.800 40 0 -15.9405 137.998 30 40 988 -15.9000 137.900 40 988 -15.8000 137.800 TC 40 7 292
2000056S17152 2000 13 SP EA STEVE 2000-02-29 13:00:00 TS -15.8236 137.756 40 988 bom main 46 35 P_____O_P___P_ SH142000 -15.7667 137.659 40 0 -15.9000 137.900 30 40 988 3.00000 7 -15.8611 137.807 41 987 -15.7667 137.659 TC 40 7 285
2000056S17152 2000 13 SP EA STEVE 2000-02-29 15:00:00 TS -15.7624 137.503 main 35 33 P_____P_P___P_ SH142000 -15.7200 137.357 42 0 -15.8162 137.676 30 40 986 -15.7931 137.621 45 986 -15.7200 137.357 TC 42 8 281
2000056S17152 2000 13 SP EA STEVE 2000-02-29 18:00:00 TS -15.7000 137.100 40 985 bom main 33 11 O_____O_O___O_ jtwc_sh SH142000 -15.7000 136.900 45 0 -15.7000 137.300 30 40 985 3.00000 7 -15.7000 137.300 50 985 -15.7000 136.900 TC 45 8 277
2000056S17152 2000 13 SP EA STEVE 2000-02-29 21:00:00 TS -15.6712 136.693 40 985 bom main 11 10 P_____O_O___P_ SH142000 -15.7424 136.485 40 0 -15.6000 136.900 30 40 985 3.00000 7 -15.6000 136.900 50 985 -15.7424 136.485 TC 40 8 272
2000056S17152 2000 13 SP EA STEVE 2000-02-29 22:00:00 TS -15.6818 136.577 40 985 bom main 10 0 P_____O_O___P_ SH142000 -15.7636 136.353 38 0 -15.6000 136.800 30 40 985 3.00000 7 -15.6000 136.800 50 985 -15.7636 136.353 TC 38 8 266
2000056S17152 2000 13 SP EA STEVE 2000-03-01 00:00:00 TS -15.7000 136.300 40 987 bom main 0 0 O_____O_O___O_ jtwc_sh SH142000 -15.8000 136.100 35 0 -15.6000 136.500 30 40 987 3.00000 7 -15.6000 136.500 45 987 -15.8000 136.100 TC 35 8 271
2000056S17152 2000 13 SP EA STEVE 2000-03-01 03:00:00 TS -15.6724 135.879 35 990 bom main 0 0 P_____O_O___P_ SH142000 -15.8448 135.758 32 -1 -15.5000 136.000 30 35 990 3.00000 -15.5000 136.000 40 990 -15.8448 135.758 TC 32 9 280
2000056S17152 2000 13 SP EA STEVE 2000-03-01 06:00:00 TS -15.5500 135.400 30 992 bom main 0 0 O_____O_O___O_ jtwc_sh SH142000 -15.8000 135.400 30 -1 -15.3000 135.400 20 30 992 -15.3000 135.400 35 992 -15.8000 135.400 TC 30 9 290
2000056S17152 2000 13 SI WA STEVE 2000-03-01 09:00:00 TS -15.3567 134.954 main 0 0 P_____P_P___P_ SH142000 -15.5876 134.950 27 -1 -15.1259 134.959 20 30 993 -15.1259 134.959 32 993 -15.5876 134.950 TC 27 9 296
2000056S17152 2000 13 SI WA STEVE 2000-03-01 12:00:00 TS -15.1500 134.550 30 995 bom main 0 0 O_____O_O___O_ jtwc_sh SH142000 -15.3000 134.500 25 -1 -15.0000 134.600 20 30 995 -15.0000 134.600 30 995 -15.3000 134.500 TC 25 9 296
2000056S17152 2000 13 SI WA STEVE 2000-03-01 15:00:00 TS -14.9774 134.156 main 0 0 P_____P_P___P_ SH142000 -15.0198 134.143 25 -1 -14.9349 134.200 20 30 995 -14.9351 134.140 30 995 -15.0198 134.143 TC 25 8 293
2000056S17152 2000 13 SI WA STEVE 2000-03-01 18:00:00 TS -14.8500 133.800 30 995 bom main 0 0 O_____O_O___O_ jtwc_sh SH142000 -14.8000 133.800 25 -1 -14.9000 133.800 20 30 995 -14.9000 133.800 30 995 -14.8000 133.800 TC 25 6 288
2000056S17152 2000 13 SI WA STEVE 2000-03-01 21:00:00 TS -14.7735 133.526 main 0 0 P_____P_P___P_ SH142000 -14.6974 133.423 25 -1 -14.8499 133.400 20 30 995 -14.8495 133.860 30 995 -14.6974 133.423 TC 25 6 280
2000056S17152 2000 13 SI WA STEVE 2000-03-02 00:00:00 TS -14.7500 133.200 30 995 bom main 0 0 O_____O_O___O_ jtwc_sh SH142000 -14.7000 133.000 25 -1 -14.8000 133.000 20 30 995 -14.8000 133.800 30 996 -14.7000 133.000 TC 25 8 270
2000056S17152 2000 13 SI WA STEVE 2000-03-02 03:00:00 TS -14.7752 132.673 main 0 0 P_____P_P___P_ SH142000 -14.8001 132.500 25 -1 -14.7498 132.615 20 30 994 -14.7509 133.075 30 994 -14.8001 132.500 TC 25 11 267
2000056S17152 2000 13 SI WA STEVE 2000-03-02 06:00:00 TS -14.8000 132.100 30 993 bom main 0 0 O_____O_O___O_ jtwc_sh SH142000 -14.9000 132.000 25 -1 -14.7000 132.200 20 30 993 -14.7000 132.200 30 993 -14.9000 132.000 TC 25 10 271
2000056S17152 2000 13 SI WA STEVE 2000-03-02 09:00:00 TS -14.7536 131.620 main 0 0 P_____P_P___P_ SH142000 -14.8724 131.577 25 -1 -14.6351 131.692 20 30 993 -14.6347 131.632 30 993 -14.8724 131.577 TC 25 9 277
2000056S17152 2000 13 SI WA STEVE 2000-03-02 12:00:00 TS -14.7000 131.200 30 994 bom main 0 0 O_____O_O___O_ jtwc_sh SH142000 -14.8000 131.200 25 -1 -14.6000 131.200 20 30 994 -14.6000 131.200 30 994 -14.8000 131.200 TC 25 8 276
2000056S17152 2000 13 SI WA STEVE 2000-03-02 15:00:00 TS -14.6736 130.842 main 0 0 P_____P_P___P_ SH142000 -14.7198 130.865 25 -1 -14.6274 130.820 20 30 993 -14.6274 130.820 30 993 -14.7198 130.865 TC 25 7 270
2000056S17152 2000 13 SI WA STEVE 2000-03-02 18:00:00 TS -14.7000 130.500 30 992 bom main 0 0 O_____O_O___O_ jtwc_sh SH142000 -14.7000 130.500 25 -1 -14.7000 130.500 20 30 992 -14.7000 130.500 30 992 -14.7000 130.500 TC 25 7 261
2000056S17152 2000 13 SI WA STEVE 2000-03-02 21:00:00 TS -14.7875 130.111 main 0 0 P_____P_P___P_ SH142000 -14.7900 130.022 25 -1 -14.7849 130.200 20 30 993 -14.7849 130.200 30 993 -14.7900 130.022 TC 25 8 252
2000056S17152 2000 13 SI WA STEVE 2000-03-03 00:00:00 TS -14.9500 129.700 30 994 bom main 0 0 O_____O_O___O_ jtwc_sh SH142000 -15.0000 129.500 25 -1 -14.9000 129.900 20 30 994 -14.9000 129.900 30 994 -15.0000 129.500 TC 25 9 243
2000056S17152 2000 13 SI WA STEVE 2000-03-03 03:00:00 TS -15.1923 129.305 main 0 0 P_____P_P___P_ SH142000 -15.3423 129.015 25 -1 -15.0423 129.595 20 30 994 -15.0423 129.595 30 994 -15.3423 129.015 TC 25 10 239
2000056S17152 2000 13 SI WA STEVE 2000-03-03 06:00:00 TS -15.4500 128.850 30 994 bom main 0 0 O_____O_O___O_ jtwc_sh SH142000 -15.7000 128.500 25 -1 -15.2000 129.200 20 30 994 -15.2000 129.200 30 994 -15.7000 128.500 TC 25 11 245
2000056S17152 2000 13 SI WA STEVE 2000-03-03 09:00:00 TS -15.6399 128.291 main 0 0 P_____P_P___P_ SH142000 -15.9299 127.922 25 -1 -15.3499 128.660 20 30 994 -15.3499 128.660 30 994 -15.9299 127.922 TC 25 12 253
2000056S17152 2000 13 SI WA STEVE 2000-03-03 12:00:00 TS -15.8000 127.650 30 995 bom main 0 0 O_____O_O___O_ jtwc_sh SH142000 -16.1000 127.300 25 -1 -15.5000 128.000 20 30 995 -15.5000 128.000 30 995 -16.1000 127.300 TC 25 13 256
2000056S17152 2000 13 SI WA STEVE 2000-03-03 15:00:00 TS -15.9500 126.957 main 0 0 P_____P_P___P_ SH142000 -16.2575 126.642 27 -1 -15.6425 127.272 20 30 995 -15.6425 127.272 30 995 -16.2575 126.642 TC 27 14 257
2000056S17152 2000 13 SI WA STEVE 2000-03-03 18:00:00 TS -16.1200 126.233 30 995 bom main 0 0 O_____O_O___O_ jtwc_sh SH142000 -16.4000 126.000 30 -1 -15.8000 126.500 20 30 995 -15.8000 126.500 30 995 -16.4000 126.000 TC 30 14 256
2000056S17152 2000 13 SI WA STEVE 2000-03-03 21:00:00 TS -16.2819 125.576 main 0 0 P_____P_P___P_ SH142000 -16.5497 125.435 30 -1 -15.8921 125.776 20 30 995 -15.9904 125.743 30 995 -16.5497 125.435 TC 30 13 253
2000056S17152 2000 13 SI WA STEVE 2000-03-04 00:00:00 TS -16.5077 124.938 30 995 bom main 0 0 O_____O_O___O_ jtwc_sh SH142000 -16.7000 124.900 30 -1 -16.2000 125.000 20 30 995 -16.2000 125.000 30 995 -16.7000 124.900 TC 30 14 245
2000056S17152 2000 13 SI WA STEVE 2000-03-04 03:00:00 TS -16.8854 124.251 main 0 0 P_____P_____P_ SH142000 -16.8424 124.342 30 -1 -16.9713 124.069 20 30 995 -16.8424 124.342 TC 30 15 241
2000056S17152 2000 13 SI WA STEVE 2000-03-04 04:00:00 TS -16.9947 124.039 30 995 bom main 0 0 P_____O_____P_ SH142000 -16.8920 124.159 30 -1 -17.2000 123.800 20 30 995 2 -16.8920 124.159 TC 30 12 245
2000056S17152 2000 13 SI WA STEVE 2000-03-04 06:00:00 TS -17.1382 123.679 main 0 0 O_____P_____O_ jtwc_sh SH142000 -17.0000 123.800 30 -1 -17.4147 123.436 20 30 995 -17.0000 123.800 TC 30 10 249
2000056S17152 2000 13 SI WA STEVE 2000-03-04 09:00:00 TS -17.2959 123.224 main 0 0 P_____P_____P_ SH142000 -17.1999 123.285 30 -1 -17.4880 123.101 20 30 995 -17.1999 123.285 TC 30 9 250
2000056S17152 2000 13 SI WA STEVE 2000-03-04 10:00:00 TS -17.3460 123.080 30 995 bom main 0 0 P_____O_____P_ SH142000 -17.2690 123.120 30 -1 -17.5000 123.000 20 30 995 2 -17.2690 123.120 TC 30 9 248
2000056S17152 2000 13 SI WA STEVE 2000-03-04 12:00:00 TS -17.4648 122.778 main 0 0 O_____P_____O_ jtwc_sh SH142000 -17.4000 122.800 30 -1 -17.5945 122.733 20 30 993 -17.4000 122.800 TC 30 9 249
2000056S17152 2000 13 SI WA STEVE 2000-03-04 15:00:00 TS -17.6146 122.339 main 0 0 P_____P_____P_ SH142000 -17.5498 122.342 30 -1 -17.7442 122.333 20 30 990 -17.5498 122.342 TC 30 9 250
2000056S17152 2000 13 SI WA STEVE 2000-03-04 16:00:00 TS -17.6649 122.196 30 990 bom main 0 0 P_____O_____P_ SH142000 -17.5974 122.194 30 -1 -17.8000 122.200 20 30 990 2 -17.5974 122.194 TC 30 9 248
2000056S17152 2000 13 SI WA STEVE 2000-03-04 18:00:00 TS -17.7751 121.911 main 30 30 O_____P_____O_ jtwc_sh SH142000 -17.7000 121.900 30 -1 -17.9254 121.933 20 33 990 -17.7000 121.900 TC 30 9 247
2000056S17152 2000 13 SI WA STEVE 2000-03-04 21:00:00 TS -17.9618 121.478 main 61 61 P_____P_____P_ SH142000 -17.8774 121.450 32 -1 -18.1307 121.533 20 38 990 -17.8774 121.450 TC 32 9 245
2000056S17152 2000 13 SI WA STEVE 2000-03-04 22:00:00 TS -18.0302 121.333 40 990 bom main 76 69 P_____O_____P_ SH142000 -17.9453 121.300 33 -1 -18.2000 121.400 30 40 990 3.00000 349 3 -17.9453 121.300 TC 33 9 243
2000056S17152 2000 13 SI WA STEVE 2000-03-05 00:00:00 TS -18.1778 121.041 main 86 86 O_____P_____O_ jtwc_sh SH142000 -18.1000 121.000 35 0 -18.3333 121.122 30 43 988 349 -18.1000 121.000 TC 35 10 239
2000056S17152 2000 13 SI WA STEVE 2000-03-05 03:00:00 TS -18.4444 120.607 main 118 114 P_____P_____P_ SH142000 -18.3999 120.550 37 0 -18.5333 120.722 30 48 985 349 -18.3999 120.550 TC 37 10 237
2000056S17152 2000 13 SI WA STEVE 2000-03-05 04:00:00 TS -18.5366 120.467 50 985 bom main 122 118 P_____O_____P_ SH142000 -18.5048 120.400 38 0 -18.6000 120.600 30 50 985 3.50000 349 3 -18.5048 120.400 TC 38 9 236
2000056S17152 2000 13 SI WA STEVE 2000-03-05 06:00:00 TS -18.7111 120.195 main 123 116 O_____P_____O_ jtwc_sh SH142000 -18.7000 120.100 40 0 -18.7332 120.385 30 50 985 349 -18.7000 120.100 TC 40 9 240
2000056S17152 2000 13 SI WA STEVE 2000-03-05 09:00:00 TS -18.9011 119.788 main 119 112 P_____P_____P_ SH142000 -18.8850 119.635 42 0 -18.9333 120.096 30 50 985 349 -18.8850 119.635 TC 42 9 244
2000056S17152 2000 13 SI WA STEVE 2000-03-05 10:00:00 TS -18.9639 119.656 50 985 bom main 112 105 P_____O_____P_ SH142000 -18.9459 119.484 43 0 -19.0000 120.000 30 50 985 3.50000 349 3 -18.9459 119.484 TC 43 8 240
2000056S17152 2000 13 SI WA STEVE 2000-03-05 12:00:00 TS -19.1111 119.406 main 109 100 O_____P_____O_ jtwc_sh SH142000 -19.1000 119.200 45 0 -19.1333 119.817 30 50 985 349 -19.1000 119.200 TC 45 9 234
2000056S17152 2000 13 SI WA STEVE 2000-03-05 13:00:00 TS -19.2174 119.283 50 985 bom main 100 78 P_____O_____P_ SH142000 -19.2261 119.075 46 0 -19.2000 119.700 30 50 985 3.50000 349 3 -19.2261 119.075 TC 46 10 227
2000056S17152 2000 13 SI WA STEVE 2000-03-05 15:00:00 TS -19.4543 119.018 main 67 59 P_____P_____P_ SH142000 -19.5148 118.843 50 0 -19.3334 119.370 30 50 985 349 -19.5148 118.843 TC 50 10 226
2000056S17152 2000 13 SI WA STEVE 2000-03-05 16:00:00 TS -19.5726 118.887 50 985 bom main 59 53 P_____O_____P_ SH142000 -19.6588 118.731 51 0 -19.4000 119.200 30 50 985 3.50000 349 3 -19.6588 118.731 TC 51 10 228
2000056S17152 2000 13 SI WA STEVE 2000-03-05 18:00:00 TS -19.7778 118.643 main 61 61 O_____P_____O_ jtwc_sh SH142000 -19.9000 118.500 55 0 -19.5333 118.928 30 53 981 349 -19.9000 118.500 TC 55 9 232
2000056S17152 2000 13 SI WA STEVE 2000-03-05 19:00:00 TS -19.8450 118.515 55 980 bom main 67 55 P_____O_____P_ SH142000 -19.9676 118.372 55 0 -19.6000 118.800 30 55 980 4.00000 349 6 -19.9676 118.372 TC 55 8 246
2000056S17152 2000 13 SI WA STEVE 2000-03-05 21:00:00 TS -19.9411 118.254 main 55 44 P_____P_____P_ SH142000 -20.0450 118.107 55 0 -19.7333 118.549 30 58 976 349 -20.0450 118.107 TC 55 8 251
2000056S17152 2000 13 SI WA STEVE 2000-03-05 22:00:00 TS -19.9773 118.115 60 975 bom main 44 44 P_____O_____P_ SH142000 -20.0659 117.972 55 0 -19.8000 118.400 30 60 975 4.00000 349 6 -20.0659 117.972 TC 55 9 256
2000056S17152 2000 13 SI WA STEVE 2000-03-06 00:00:00 TS -20.0444 117.806 main 54 45 O_____P_____O_ jtwc_sh SH142000 -20.1000 117.700 55 0 -19.9333 118.019 30 60 975 349 -20.1000 117.700 TC 55 9 257
2000056S17152 2000 13 SI WA STEVE 2000-03-06 01:00:00 TS -20.0836 117.643 60 975 bom main 54 54 P_____O_____P_ SH142000 -20.1254 117.564 56 0 -20.0000 117.800 30 60 975 4.00000 349 6 -20.1254 117.564 TC 56 10 256
2000056S17152 2000 13 SI WA STEVE 2000-03-06 03:00:00 TS -20.1628 117.300 main 56 54 P_____P_____P_ SH142000 -20.1775 117.292 60 0 -20.1334 117.315 30 60 975 349 -20.1775 117.292 TC 60 10 255
2000056S17152 2000 13 SI WA STEVE 2000-03-06 04:00:00 TS -20.2064 117.139 60 975 bom main 54 35 P_____O_____P_ SH142000 -20.2096 117.159 61 0 -20.2000 117.100 30 60 975 4.00000 349 6 -20.2096 117.159 TC 61 9 250
2000056S17152 2000 13 SI WA STEVE 2000-03-06 06:00:00 TS -20.3137 116.864 main 35 22 O_____P_____O_ jtwc_sh SH142000 -20.3000 116.900 65 1 -20.3412 116.793 30 60 975 349 -20.3000 116.900 TC 65 8 245
2000056S17152 2000 13 SI WA STEVE 2000-03-06 07:00:00 TS -20.3722 116.752 60 975 bom main 22 15 P_____O_____P_ SH142000 -20.3583 116.778 65 1 -20.4000 116.700 30 60 975 4.00000 349 6 -20.3583 116.778 TC 65 6 237
2000056S17152 2000 13 SI WA STEVE 2000-03-06 09:00:00 TS -20.4887 116.575 main 15 15 P_____P_____P_ SH142000 -20.5049 116.542 65 1 -20.4562 116.641 30 60 975 349 -20.5049 116.542 TC 65 6 233
2000056S17152 2000 13 SI WA STEVE 2000-03-06 10:00:00 TS -20.5622 116.485 60 975 bom main 15 15 P_____O_____P_ SH142000 -20.5932 116.428 65 1 -20.5000 116.600 30 60 975 4.00000 349 6 -20.5932 116.428 TC 65 8 228
2000056S17152 2000 13 SI WA STEVE 2000-03-06 12:00:00 TS -20.7631 116.247 main 11 10 O_____P_____O_ jtwc_sh SH142000 -20.8000 116.200 65 1 -20.6892 116.342 30 60 975 349 -20.8000 116.200 TC 65 9 227
2000056S17152 2000 13 SI WA STEVE 2000-03-06 13:00:00 TS -20.8792 116.115 60 975 bom main 10 0 P_____O_____P_ SH142000 -20.9189 116.073 63 0 -20.8000 116.200 30 60 975 4.00000 349 6 -20.9189 116.073 TC 63 10 224
2000056S17152 2000 13 SI WA STEVE 2000-03-06 15:00:00 TS -21.1234 115.878 main 0 0 P_____P_____P_ SH142000 -21.1851 115.820 60 0 -21.0000 115.995 30 56 978 349 -21.1851 115.820 TC 60 10 221
2000056S17152 2000 13 SI WA STEVE 2000-03-06 16:00:00 TS -21.2500 115.768 55 980 bom main 0 0 P_____O_____P_ SH142000 -21.3250 115.702 58 0 -21.1000 115.900 30 55 980 4.00000 349 6 -21.3250 115.702 TC 58 10 218
2000056S17152 2000 13 SI WA STEVE 2000-03-06 18:00:00 TS -21.4974 115.564 main 0 0 O_____P_____O_ jtwc_sh SH142000 -21.6000 115.500 55 0 -21.2921 115.692 30 55 980 349 -21.6000 115.500 TC 55 9 215
2000056S17152 2000 13 SI WA STEVE 2000-03-06 19:00:00 TS -21.6201 115.492 55 980 bom main 0 0 P_____O_____P_ SH142000 -21.7301 115.437 55 0 -21.4000 115.600 30 55 980 349 6 -21.7301 115.437 TC 55 8 203
2000056S17152 2000 13 SI WA STEVE 2000-03-06 21:00:00 TS -21.8709 115.389 main 0 0 P_____P_____P_ SH142000 -21.9797 115.350 55 0 -21.6533 115.469 30 55 980 349 -21.9797 115.350 TC 55 8 201
2000056S17152 2000 13 SI WA STEVE 2000-03-06 22:00:00 TS -21.9970 115.340 55 980 bom main 0 0 P_____O_____P_ SH142000 -22.0956 115.310 55 0 -21.8000 115.400 30 55 980 349 6 -22.0956 115.310 TC 55 8 204
2000056S17152 2000 13 SI WA STEVE 2000-03-07 00:00:00 TS -22.2505 115.207 main 0 0 O_____P_____O_ jtwc_sh SH142000 -22.3000 115.200 55 0 -22.1516 115.221 30 51 980 349 -22.3000 115.200 TC 55 8 211
2000056S17152 2000 13 SI WA STEVE 2000-03-07 01:00:00 TS -22.3577 115.102 50 980 bom main 0 0 P_____O_____P_ SH142000 -22.3865 115.104 55 0 -22.3000 115.100 30 50 980 349 6 -22.3865 115.104 TC 55 9 234
2000056S17152 2000 13 SI WA STEVE 2000-03-07 03:00:00 TS -22.5007 114.833 main 0 0 P_____P_____P_ SH142000 -22.5301 114.873 55 0 -22.4418 114.754 30 46 980 349 -22.5301 114.873 TC 55 9 241
2000056S17152 2000 13 SI WA STEVE 2000-03-07 04:00:00 TS -22.5606 114.698 45 980 bom main 0 0 P_____O_____P_ SH142000 -22.5910 114.747 55 0 -22.5000 114.600 30 45 980 349 6 -22.5910 114.747 TC 55 8 238
2000056S17152 2000 13 SI WA STEVE 2000-03-07 06:00:00 TS -22.7008 114.483 main 0 0 O_____P_____O_ jtwc_sh SH142000 -22.7000 114.500 55 0 -22.7024 114.450 30 45 980 349 -22.7000 114.500 TC 55 7 234
2000056S17152 2000 13 SI WA STEVE 2000-03-07 07:00:00 TS -22.7652 114.391 45 980 bom main 0 0 P_____O_____P_ SH142000 -22.7478 114.386 55 0 -22.8000 114.400 30 45 980 349 6 -22.7478 114.386 TC 55 6 237
2000056S17152 2000 13 SI WA STEVE 2000-03-07 09:00:00 TS -22.8696 114.202 main 0 0 P_____P_____P_ SH142000 -22.8350 114.170 55 0 -22.9388 114.267 30 45 980 349 -22.8350 114.170 TC 55 6 239
2000056S17152 2000 13 SI WA STEVE 2000-03-07 10:00:00 TS -22.9212 114.114 45 980 bom main 0 0 P_____O_____P_ SH142000 -22.8817 114.071 55 0 -23.0000 114.200 30 45 980 349 6 -22.8817 114.071 TC 55 6 232
2000056S17152 2000 13 SI WA STEVE 2000-03-07 12:00:00 TS -23.0471 113.953 main 0 0 O_____P_____O_ jtwc_sh SH142000 -23.0000 113.900 55 0 -23.1412 114.059 30 45 980 349 -23.0000 113.900 TC 55 6 225
2000056S17152 2000 13 SI WA STEVE 2000-03-07 13:00:00 TS -23.1236 113.889 45 980 bom main 0 0 P_____O_____P_ SH142000 -23.0854 113.833 55 0 -23.2000 114.000 30 45 980 349 6 -23.0854 113.833 TC 55 5 212
2000056S17152 2000 13 SI WA STEVE 2000-03-07 15:00:00 TS -23.2780 113.797 main 0 0 P_____P_____P_ SH142000 -23.2849 113.727 55 0 -23.2642 113.936 30 45 980 349 -23.2849 113.727 TC 55 5 208
2000056S17152 2000 13 SI WA STEVE 2000-03-07 16:00:00 TS -23.3610 113.756 45 980 bom main 0 10 P_____O_____P_ SH142000 -23.3915 113.684 55 0 -23.3000 113.900 30 45 980 349 6 -23.3915 113.684 TC 55 6 206
2000056S17152 2000 13 SI WA STEVE 2000-03-07 18:00:00 TS -23.5426 113.657 main 10 10 O_____P_____O_ jtwc_sh SH142000 -23.6000 113.600 55 0 -23.4279 113.772 30 48 980 349 -23.6000 113.600 TC 55 6 208
2000056S17152 2000 13 SI WA STEVE 2000-03-07 19:00:00 TS -23.6295 113.598 50 980 bom main 15 10 P_____O_____P_ SH142000 -23.6943 113.547 55 0 -23.5000 113.700 30 50 980 3.50000 349 6 -23.6943 113.547 TC 55 6 213
2000056S17152 2000 13 SI WA STEVE 2000-03-07 21:00:00 TS -23.7928 113.479 main 10 10 P_____P_____P_ SH142000 -23.8725 113.443 55 0 -23.6333 113.551 30 50 980 349 -23.8725 113.443 TC 55 6 213
2000056S17152 2000 13 SI WA STEVE 2000-03-07 22:00:00 TS -23.8697 113.428 50 980 bom main 10 10 P_____O_____P_ SH142000 -23.9546 113.392 55 0 -23.7000 113.500 30 50 980 3.50000 349 6 -23.9546 113.392 TC 55 5 206
2000056S17152 2000 13 SI WA STEVE 2000-03-08 00:00:00 TS -24.0032 113.366 main 10 10 O_____P_____O_ jtwc_sh SH142000 -24.1000 113.300 55 0 -23.8096 113.497 30 50 980 349 -24.1000 113.300 TC 55 4 201
2000056S17152 2000 13 SI WA STEVE 2000-03-08 01:00:00 TS -24.0725 113.337 50 980 bom main 20 20 P_____O_____P_ SH142000 -24.1588 113.256 54 0 -23.9000 113.500 30 50 980 3.50000 349 6 -24.1588 113.256 TC 54 5 200
2000056S17152 2000 13 SI WA STEVE 2000-03-08 03:00:00 TS -24.2466 113.267 main 20 15 P_____P_____P_ SH142000 -24.2575 113.177 52 0 -24.2249 113.447 30 50 980 349 -24.2575 113.177 TC 52 6 200
2000056S17152 2000 13 SI WA STEVE 2000-03-08 04:00:00 TS -24.3353 113.230 50 980 bom main 23 20 P_____O_____P_ SH142000 -24.3030 113.145 51 0 -24.4000 113.400 30 50 980 3.50000 349 6 -24.3030 113.145 TC 51 5 203
2000056S17152 2000 13 SI WA STEVE 2000-03-08 06:00:00 TS -24.4986 113.155 main 23 23 O_____P_____O_ jtwc_sh SH142000 -24.4000 113.100 50 0 -24.6958 113.264 30 50 980 349 -24.4000 113.100 TC 50 5 201
2000056S17152 2000 13 SI WA STEVE 2000-03-08 07:00:00 TS -24.5740 113.122 50 980 bom main 37 37 P_____O_____P_ SH142000 -24.4609 113.083 50 0 -24.8000 113.200 30 50 980 3.50000 349 6 -24.4609 113.083 TC 50 4 201
2000056S17152 2000 13 SI WA STEVE 2000-03-08 09:00:00 TS -24.6867 113.084 main 45 45 P_____P_____P_ SH142000 -24.5925 113.070 50 0 -24.8751 113.112 30 50 980 349 -24.5925 113.070 TC 50 3 195
2000056S17152 2000 13 SI WA STEVE 2000-03-08 10:00:00 TS -24.7408 113.082 50 980 bom main 45 50 P_____O_____P_ SH142000 -24.6612 113.073 50 0 -24.9000 113.100 30 50 980 3.50000 349 6 -24.6612 113.073 TC 50 4 170
2000056S17152 2000 13 SI WA STEVE 2000-03-08 12:00:00 TS -24.8812 113.119 main 50 50 O_____P_____O_ jtwc_sh SH142000 -24.8000 113.100 50 0 -25.0437 113.156 30 50 980 349 -24.8000 113.100 TC 50 4 166
2000056S17152 2000 13 SI WA STEVE 2000-03-08 13:00:00 TS -24.9479 113.146 50 980 bom main 50 41 P_____O_____P_ SH142000 -24.8719 113.119 50 0 -25.1000 113.200 30 50 980 3.50000 349 6 -24.8719 113.119 TC 50 4 154
2000056S17152 2000 13 SI WA STEVE 2000-03-08 15:00:00 TS -25.0443 113.210 main 41 41 P_____P_____P_ SH142000 -25.0150 113.177 50 0 -25.1030 113.275 30 50 980 349 -25.0150 113.177 TC 50 3 147
2000056S17152 2000 13 SI WA STEVE 2000-03-08 16:00:00 TS -25.0883 113.243 50 980 bom main 46 37 P_____O_____P_ SH142000 -25.0825 113.215 50 0 -25.1000 113.300 30 50 980 3.50000 349 6 -25.0825 113.215 TC 50 3 151
2000056S17152 2000 13 SI WA STEVE 2000-03-08 18:00:00 TS -25.1871 113.297 main 41 41 O_____P_____O_ jtwc_sh SH142000 -25.2000 113.300 50 0 -25.1612 113.290 30 50 980 349 -25.2000 113.300 TC 50 3 152
2000056S17152 2000 13 SI WA STEVE 2000-03-08 19:00:00 TS -25.2281 113.330 50 980 bom main 41 32 P_____O_____P_ SH142000 -25.2421 113.344 49 0 -25.2000 113.300 30 50 980 3.50000 349 6 -25.2421 113.344 TC 49 3 130
2000056S17152 2000 13 SI WA STEVE 2000-03-08 21:00:00 TS -25.2939 113.441 main 34 30 P_____P_____P_ SH142000 -25.3075 113.443 47 0 -25.2667 113.438 30 50 980 349 -25.3075 113.443 TC 47 4 122
2000056S17152 2000 13 SI WA STEVE 2000-03-08 22:00:00 TS -25.3242 113.496 50 980 bom main 30 22 P_____O_____P_ SH142000 -25.3363 113.495 46 0 -25.3000 113.500 30 50 980 3.50000 349 6 -25.3363 113.495 TC 46 3 130
2000056S17152 2000 13 SI WA STEVE 2000-03-09 00:00:00 TS -25.3889 113.568 main 24 24 O_____P_____O_ jtwc_sh SH142000 -25.4000 113.600 45 0 -25.3667 113.503 30 46 980 349 -25.4000 113.600 TC 45 3 139
2000056S17152 2000 13 SI WA STEVE 2000-03-09 01:00:00 TS -25.4313 113.600 45 980 bom main 24 15 P_____O_____P_ SH142000 -25.4469 113.650 45 0 -25.4000 113.500 30 45 980 3.00000 349 6 -25.4469 113.650 TC 45 3 143
2000056S17152 2000 13 SI WA STEVE 2000-03-09 03:00:00 TS -25.5222 113.687 main 22 15 P_____P_____P_ SH142000 -25.5500 113.750 45 0 -25.4667 113.561 30 41 980 349 -25.5500 113.750 TC 45 4 139
2000056S17152 2000 13 SI WA STEVE 2000-03-09 04:00:00 TS -25.5683 113.733 40 980 bom main 15 15 P_____O_____P_ SH142000 -25.6025 113.800 45 0 -25.5000 113.600 30 40 980 3.00000 349 6 -25.6025 113.800 TC 45 3 139
2000056S17152 2000 13 SI WA STEVE 2000-03-09 06:00:00 TS -25.6529 113.814 main 14 14 O_____P_____O_ jtwc_sh SH142000 -25.7000 113.900 45 0 -25.5587 113.643 30 36 980 349 -25.7000 113.900 TC 45 3 138
2000056S17152 2000 13 SI WA STEVE 2000-03-09 07:00:00 TS -25.6892 113.860 35 980 bom main 22 20 P_____O_____P_ SH142000 -25.7337 113.940 45 0 -25.6000 113.700 30 35 980 3.00000 349 6 -25.7337 113.940 TC 45 4 127
2000056S17152 2000 13 SI WA STEVE 2000-03-09 09:00:00 TS -25.7735 113.997 main 20 10 P_____P_____P_ SH142000 -25.7923 114.020 47 0 -25.7358 113.950 30 35 980 349 -25.7923 114.020 TC 47 5 123
2000056S17152 2000 13 SI WA STEVE 2000-03-09 10:00:00 TS -25.8152 114.079 35 980 bom main 10 0 P_____O_____P_ SH142000 -25.8228 114.069 48 0 -25.8000 114.100 30 35 980 3.00000 349 6 -25.8228 114.069 TC 48 5 116
2000056S17152 2000 13 SI WA STEVE 2000-03-09 12:00:00 TS -25.8881 114.258 main 0 0 O_____P_____O_ jtwc_sh SH142000 -25.9000 114.200 50 0 -25.8642 114.375 30 35 980 349 -25.9000 114.200 TC 50 5 115
2000056S17152 2000 13 SI WA STEVE 2000-03-09 13:00:00 TS -25.9315 114.354 35 980 bom main 0 0 P_____O_____P_ SH142000 -25.9473 114.281 48 0 -25.9000 114.500 30 35 980 3.00000 349 6 -25.9473 114.281 TC 48 6 121
2000056S17152 2000 13 SI WA STEVE 2000-03-09 15:00:00 TS -26.0471 114.557 main 0 0 P_____P_____P_ SH142000 -26.0622 114.483 45 0 -26.0169 114.706 30 35 980 349 -26.0622 114.483 TC 45 7 124
2000056S17152 2000 13 SI WA STEVE 2000-03-09 16:00:00 TS -26.1212 114.671 35 980 bom main 0 0 P_____O_____P_ SH142000 -26.1318 114.606 43 0 -26.1000 114.800 30 35 980 349 6 -26.1318 114.606 TC 43 8 128
2000056S17152 2000 13 SI WA STEVE 2000-03-09 18:00:00 TS -26.3062 114.924 main 0 0 O_____P_____O_ jtwc_sh SH142000 -26.3000 114.900 40 0 -26.3186 114.972 30 35 981 349 -26.3000 114.900 TC 40 10 130
2000056S17152 2000 13 SI WA STEVE 2000-03-09 21:00:00 TS -26.6573 115.393 main 0 0 P_____P_____P_ SH142000 -26.6126 115.455 37 0 -26.7466 115.268 30 35 984 349 -26.6126 115.455 TC 37 11 130
2000056S17152 2000 13 SI WA STEVE 2000-03-09 22:00:00 TS -26.7897 115.577 35 985 bom main 0 0 P_____O_____P_ SH142000 -26.7346 115.665 36 0 -26.9000 115.400 21 35 985 349 2 -26.7346 115.665 TC 36 13 128
2000056S17152 2000 13 SI WA STEVE 2000-03-10 00:00:00 TS -27.0658 115.977 main 0 0 O_____P_____O_ jtwc_sh SH142000 -27.0000 116.100 35 0 -27.1974 115.731 21 35 985 349 -27.0000 116.100 TC 35 14 128
2000056S17152 2000 13 SI WA STEVE 2000-03-10 03:00:00 TS -27.4974 116.606 main 0 0 P_____P_____P_ SH142000 -27.4196 116.728 35 0 -27.6529 116.362 21 35 985 349 -27.4196 116.728 TC 35 14 128
2000056S17152 2000 13 SI WA STEVE 2000-03-10 04:00:00 TS -27.6486 116.831 35 985 bom main 0 0 P_____O_____P_ SH142000 -27.5730 116.946 35 0 -27.8000 116.600 21 35 985 349 2 -27.5730 116.946 TC 35 15 126
2000056S17152 2000 13 SI WA STEVE 2000-03-10 06:00:00 TS -27.9510 117.303 main 0 0 O_____P_____O_ jtwc_sh SH142000 -27.9000 117.400 35 0 -28.0530 117.108 21 36 986 349 -27.9000 117.400 TC 35 16 126
2000056S17152 2000 13 SI WA STEVE 2000-03-10 09:00:00 TS -28.4389 118.081 main 0 0 P_____P_____P_ SH142000 -28.4352 118.157 32 -1 -28.4465 117.929 21 39 989 349 -28.4352 118.157 TC 32 17 126
2000056S17152 2000 13 SI WA STEVE 2000-03-10 10:00:00 TS -28.6151 118.342 40 990 bom main 0 0 P_____O_____P_ SH142000 -28.6226 118.413 31 -1 -28.6000 118.200 21 40 990 349 2 -28.6226 118.413 TC 31 17 130
2000056S17152 2000 13 SI WA STEVE 2000-03-10 12:00:00 TS -28.9857 118.834 main 0 0 O_____P_____O_ jtwc_sh SH142000 -29.0000 118.900 30 -1 -28.9570 118.703 21 40 990 349 -29.0000 118.900 TC 30 16 132
2000056S17152 2000 13 SI WA STEVE 2000-03-10 15:00:00 TS -29.5189 119.504 main 0 0 P_____P_____P_ SH142000 -29.4895 119.532 27 -1 -29.5777 119.447 21 40 990 349 -29.4895 119.532 TC 27 16 133
2000056S17152 2000 13 SI WA STEVE 2000-03-10 16:00:00 TS -29.7132 119.717 40 990 bom main 0 0 P_____O_____P_ SH142000 -29.6697 119.726 26 -1 -29.8000 119.700 21 40 990 349 2 -29.6697 119.726 TC 26 17 139
2000056S17152 2000 13 SI WA STEVE 2000-03-10 18:00:00 TS -30.1519 120.138 main 0 0 O_____P_____O_ jtwc_sh SH142000 -30.1000 120.100 25 -1 -30.2558 120.215 21 40 990 349 -30.1000 120.100 TC 25 19 143
2000056S17152 2000 13 SI WA STEVE 2000-03-10 21:00:00 TS -30.9690 120.798 main 0 0 P_____P_____P_ SH142000 -30.9706 120.649 22 -1 -30.9668 121.020 21 40 990 349 -30.9706 120.649 TC 22 20 144
2000056S17152 2000 13 SI WA STEVE 2000-03-10 22:00:00 TS -31.2520 121.066 40 990 bom main 0 0 P_____O_____P_ SH142000 -31.3041 120.832 21 -1 -31.2000 121.300 21 40 990 349 2 -31.3041 120.832 TC 21 22 137
2000056S17152 2000 13 SI WA STEVE 2000-03-11 00:00:00 TS -31.7572 121.664 main 0 0 O_____P_____O_ jtwc_sh SH142000 -32.0000 121.200 20 -1 -31.6358 121.896 21 40 990 349 -32.0000 121.200 TC 20 22 125
2000056S17152 2000 13 SI WA STEVE 2000-03-11 03:00:00 NR -32.2802 122.807 main 0 0 ______P_______ SH142000 -1 -32.2802 122.807 21 40 990 349 TC 21 121
2000056S17152 2000 13 SI WA STEVE 2000-03-11 04:00:00 NR -32.5000 123.100 40 990 bom main 0 0 ______O_______ SH142000 -1 -32.5000 123.100 21 40 990 349 3 TC 20 134
2000056S17152 2000 13 SI WA STEVE 2000-03-11 06:00:00 NR -32.9692 123.666 main 0 0 ______P_______ -1 -32.9692 123.666 21 40 990 349 20 136
2000056S17152 2000 13 SI WA STEVE 2000-03-11 09:00:00 NR -33.6753 124.456 main 47 47 ______P_______ -1 -33.6753 124.456 21 40 990 349 19 137
2000056S17152 2000 13 SI WA STEVE 2000-03-11 10:00:00 NR -33.9000 124.700 40 990 bom main 72 72 ______O_______ -1 -33.9000 124.700 51 40 990 349 3 17 136
2000056S17152 2000 13 SI WA STEVE 2000-03-11 12:00:00 NR -34.2769 125.149 main 127 127 ______P_______ -1 -34.2769 125.149 51 40 990 349 16 137
2000056S17152 2000 13 SI WA STEVE 2000-03-11 15:00:00 NR -34.8648 125.782 main 219 219 ______P_______ -1 -34.8648 125.782 51 40 990 349 16 140
2000056S17152 2000 13 SI WA STEVE 2000-03-11 16:00:00 NR -35.1000 126.000 40 990 bom main 248 248 ______O_______ -1 -35.1000 126.000 51 40 990 349 3 19 145
2000056S17152 2000 13 SI WA STEVE 2000-03-11 18:00:00 NR -35.6603 126.468 main 326 326 ______P_______ -1 -35.6603 126.468 51 38 991 349 22 147
2000056S17152 2000 13 SI WA STEVE 2000-03-11 21:00:00 NR -36.6519 127.234 main 451 451 ______P_______ -1 -36.6519 127.234 51 35 994 349 24 148
2000056S17152 2000 13 SI WA STEVE 2000-03-11 22:00:00 NR -37.0000 127.500 35 995 bom main 493 ______O_______ -1 -37.0000 127.500 51 35 995 349 3 25 149

デジタル台風データ・検索

IBTrACS Databaseについて

本データベースは、米国NOAAが公開する1842年以降の世界の熱帯低気圧のベストトラックデータアーカイブInternational Best Track Archive for Climate Stewardship (IBTrACS)を、ウェブで閲覧しやすい形式に変換したものです。

最終更新日:2021-10-27